sensor_id;sensor_type;location;lat;lon;timestamp;P1;durP1;ratioP1;P2;durP2;ratioP2
10216;SDS011;5152;59.674;16.838;2022-08-14T00:00:41;2.13;;;1.70;;
10216;SDS011;5152;59.674;16.838;2022-08-14T00:03:16;2.53;;;1.47;;
10216;SDS011;5152;59.674;16.838;2022-08-14T00:05:44;1.90;;;1.70;;
10216;SDS011;5152;59.674;16.838;2022-08-14T00:08:11;1.90;;;1.67;;
10216;SDS011;5152;59.674;16.838;2022-08-14T00:10:39;1.60;;;1.50;;
10216;SDS011;5152;59.674;16.838;2022-08-14T00:13:05;2.33;;;1.47;;
10216;SDS011;5152;59.674;16.838;2022-08-14T00:15:35;3.63;;;2.00;;
10216;SDS011;5152;59.674;16.838;2022-08-14T00:18:03;3.53;;;1.90;;
10216;SDS011;5152;59.674;16.838;2022-08-14T00:20:31;1.93;;;1.73;;
10216;SDS011;5152;59.674;16.838;2022-08-14T00:22:59;2.80;;;1.73;;
10216;SDS011;5152;59.674;16.838;2022-08-14T00:25:26;2.20;;;1.80;;
10216;SDS011;5152;59.674;16.838;2022-08-14T00:27:55;4.03;;;1.90;;
10216;SDS011;5152;59.674;16.838;2022-08-14T00:30:22;1.87;;;1.47;;
10216;SDS011;5152;59.674;16.838;2022-08-14T00:32:48;1.50;;;1.40;;
10216;SDS011;5152;59.674;16.838;2022-08-14T00:35:15;2.37;;;1.80;;
10216;SDS011;5152;59.674;16.838;2022-08-14T00:37:43;2.73;;;1.90;;
10216;SDS011;5152;59.674;16.838;2022-08-14T00:40:11;3.60;;;2.00;;
10216;SDS011;5152;59.674;16.838;2022-08-14T00:42:40;3.10;;;2.23;;
10216;SDS011;5152;59.674;16.838;2022-08-14T00:45:09;3.00;;;2.20;;
10216;SDS011;5152;59.674;16.838;2022-08-14T00:47:38;2.73;;;2.33;;
10216;SDS011;5152;59.674;16.838;2022-08-14T00:50:06;3.30;;;2.03;;
10216;SDS011;5152;59.674;16.838;2022-08-14T00:52:34;2.53;;;1.93;;
10216;SDS011;5152;59.674;16.838;2022-08-14T00:55:01;2.50;;;2.20;;
10216;SDS011;5152;59.674;16.838;2022-08-14T00:57:30;2.30;;;2.00;;
10216;SDS011;5152;59.674;16.838;2022-08-14T00:59:58;1.60;;;1.50;;
10216;SDS011;5152;59.674;16.838;2022-08-14T01:02:27;2.83;;;1.73;;
10216;SDS011;5152;59.674;16.838;2022-08-14T01:04:54;2.23;;;1.63;;
10216;SDS011;5152;59.674;16.838;2022-08-14T01:07:23;1.90;;;1.80;;
10216;SDS011;5152;59.674;16.838;2022-08-14T01:09:53;4.63;;;2.20;;
10216;SDS011;5152;59.674;16.838;2022-08-14T01:12:21;2.10;;;2.00;;
10216;SDS011;5152;59.674;16.838;2022-08-14T01:14:48;2.20;;;2.00;;
10216;SDS011;5152;59.674;16.838;2022-08-14T01:17:19;2.27;;;2.03;;
10216;SDS011;5152;59.674;16.838;2022-08-14T01:19:48;3.20;;;1.90;;
10216;SDS011;5152;59.674;16.838;2022-08-14T01:22:42;1.80;;;1.70;;
10216;SDS011;5152;59.674;16.838;2022-08-14T01:25:10;4.03;;;2.23;;
10216;SDS011;5152;59.674;16.838;2022-08-14T01:27:39;3.00;;;2.13;;
10216;SDS011;5152;59.674;16.838;2022-08-14T01:30:08;6.87;;;2.43;;
10216;SDS011;5152;59.674;16.838;2022-08-14T01:32:36;2.17;;;1.97;;
10216;SDS011;5152;59.674;16.838;2022-08-14T01:35:03;3.10;;;1.90;;
10216;SDS011;5152;59.674;16.838;2022-08-14T01:37:32;1.63;;;1.53;;
10216;SDS011;5152;59.674;16.838;2022-08-14T01:40:00;1.93;;;1.77;;
10216;SDS011;5152;59.674;16.838;2022-08-14T01:42:27;3.97;;;2.20;;
10216;SDS011;5152;59.674;16.838;2022-08-14T01:44:54;3.03;;;1.87;;
10216;SDS011;5152;59.674;16.838;2022-08-14T01:47:22;3.47;;;1.77;;
10216;SDS011;5152;59.674;16.838;2022-08-14T01:49:49;2.47;;;2.27;;
10216;SDS011;5152;59.674;16.838;2022-08-14T01:52:17;5.70;;;2.17;;
10216;SDS011;5152;59.674;16.838;2022-08-14T01:54:46;2.60;;;1.90;;
10216;SDS011;5152;59.674;16.838;2022-08-14T01:57:14;2.93;;;1.90;;
10216;SDS011;5152;59.674;16.838;2022-08-14T01:59:41;2.00;;;1.80;;
10216;SDS011;5152;59.674;16.838;2022-08-14T02:02:08;3.30;;;1.90;;
10216;SDS011;5152;59.674;16.838;2022-08-14T02:04:38;2.40;;;2.20;;
10216;SDS011;5152;59.674;16.838;2022-08-14T02:07:06;6.10;;;2.10;;
10216;SDS011;5152;59.674;16.838;2022-08-14T02:09:34;2.90;;;2.13;;
10216;SDS011;5152;59.674;16.838;2022-08-14T02:12:03;4.60;;;2.10;;
10216;SDS011;5152;59.674;16.838;2022-08-14T02:14:32;2.60;;;2.23;;
10216;SDS011;5152;59.674;16.838;2022-08-14T02:16:59;3.67;;;1.97;;
10216;SDS011;5152;59.674;16.838;2022-08-14T02:19:28;1.97;;;1.63;;
10216;SDS011;5152;59.674;16.838;2022-08-14T02:21:56;2.13;;;2.00;;
10216;SDS011;5152;59.674;16.838;2022-08-14T02:24:25;2.93;;;2.33;;
10216;SDS011;5152;59.674;16.838;2022-08-14T02:26:54;3.13;;;2.10;;
10216;SDS011;5152;59.674;16.838;2022-08-14T02:29:24;3.97;;;2.37;;
10216;SDS011;5152;59.674;16.838;2022-08-14T02:31:56;3.23;;;2.30;;
10216;SDS011;5152;59.674;16.838;2022-08-14T02:34:25;2.57;;;1.77;;
10216;SDS011;5152;59.674;16.838;2022-08-14T02:36:54;5.67;;;2.53;;
10216;SDS011;5152;59.674;16.838;2022-08-14T02:39:23;3.20;;;2.20;;
10216;SDS011;5152;59.674;16.838;2022-08-14T02:41:51;3.13;;;2.07;;
10216;SDS011;5152;59.674;16.838;2022-08-14T02:44:18;2.67;;;2.43;;
10216;SDS011;5152;59.674;16.838;2022-08-14T02:46:45;2.43;;;1.83;;
10216;SDS011;5152;59.674;16.838;2022-08-14T02:49:14;8.30;;;2.33;;
10216;SDS011;5152;59.674;16.838;2022-08-14T02:51:40;3.83;;;2.17;;
10216;SDS011;5152;59.674;16.838;2022-08-14T02:54:08;2.43;;;2.23;;
10216;SDS011;5152;59.674;16.838;2022-08-14T02:56:35;3.87;;;2.50;;
10216;SDS011;5152;59.674;16.838;2022-08-14T02:59:03;2.77;;;2.50;;
10216;SDS011;5152;59.674;16.838;2022-08-14T03:01:31;2.37;;;2.17;;
10216;SDS011;5152;59.674;16.838;2022-08-14T03:03:58;2.90;;;2.40;;
10216;SDS011;5152;59.674;16.838;2022-08-14T03:06:27;2.37;;;2.17;;
10216;SDS011;5152;59.674;16.838;2022-08-14T03:08:53;2.73;;;2.23;;
10216;SDS011;5152;59.674;16.838;2022-08-14T03:11:20;2.60;;;2.40;;
10216;SDS011;5152;59.674;16.838;2022-08-14T03:13:48;3.13;;;2.80;;
10216;SDS011;5152;59.674;16.838;2022-08-14T03:16:17;2.37;;;2.17;;
10216;SDS011;5152;59.674;16.838;2022-08-14T03:18:45;7.40;;;2.57;;
10216;SDS011;5152;59.674;16.838;2022-08-14T03:21:14;5.13;;;2.10;;
10216;SDS011;5152;59.674;16.838;2022-08-14T03:23:44;3.00;;;2.53;;
10216;SDS011;5152;59.674;16.838;2022-08-14T03:26:12;2.53;;;2.33;;
10216;SDS011;5152;59.674;16.838;2022-08-14T03:28:40;3.57;;;2.03;;
10216;SDS011;5152;59.674;16.838;2022-08-14T03:31:07;2.43;;;2.20;;
10216;SDS011;5152;59.674;16.838;2022-08-14T03:33:35;3.87;;;1.90;;
10216;SDS011;5152;59.674;16.838;2022-08-14T03:36:02;2.90;;;2.60;;
10216;SDS011;5152;59.674;16.838;2022-08-14T03:38:32;3.57;;;2.30;;
10216;SDS011;5152;59.674;16.838;2022-08-14T03:41:08;2.70;;;2.50;;
10216;SDS011;5152;59.674;16.838;2022-08-14T03:43:38;2.53;;;2.17;;
10216;SDS011;5152;59.674;16.838;2022-08-14T03:46:05;3.47;;;2.10;;
10216;SDS011;5152;59.674;16.838;2022-08-14T03:48:34;2.50;;;2.30;;
10216;SDS011;5152;59.674;16.838;2022-08-14T03:51:02;4.17;;;2.57;;
10216;SDS011;5152;59.674;16.838;2022-08-14T03:53:30;2.43;;;2.23;;
10216;SDS011;5152;59.674;16.838;2022-08-14T03:55:58;5.37;;;2.63;;
10216;SDS011;5152;59.674;16.838;2022-08-14T03:58:27;2.67;;;2.43;;
10216;SDS011;5152;59.674;16.838;2022-08-14T04:00:54;4.73;;;2.10;;
10216;SDS011;5152;59.674;16.838;2022-08-14T04:03:21;2.50;;;2.30;;
10216;SDS011;5152;59.674;16.838;2022-08-14T04:05:50;2.53;;;2.33;;
10216;SDS011;5152;59.674;16.838;2022-08-14T04:08:18;3.67;;;2.40;;
10216;SDS011;5152;59.674;16.838;2022-08-14T04:10:45;3.57;;;2.40;;
10216;SDS011;5152;59.674;16.838;2022-08-14T04:13:13;2.33;;;2.13;;
10216;SDS011;5152;59.674;16.838;2022-08-14T04:15:43;2.80;;;2.40;;
10216;SDS011;5152;59.674;16.838;2022-08-14T04:18:11;4.20;;;2.40;;
10216;SDS011;5152;59.674;16.838;2022-08-14T04:20:39;2.63;;;2.40;;
10216;SDS011;5152;59.674;16.838;2022-08-14T04:23:06;3.87;;;2.27;;
10216;SDS011;5152;59.674;16.838;2022-08-14T04:25:34;2.33;;;2.13;;
10216;SDS011;5152;59.674;16.838;2022-08-14T04:28:01;2.77;;;2.30;;
10216;SDS011;5152;59.674;16.838;2022-08-14T04:30:29;2.70;;;2.50;;
10216;SDS011;5152;59.674;16.838;2022-08-14T04:32:58;2.50;;;2.30;;
10216;SDS011;5152;59.674;16.838;2022-08-14T04:35:24;2.50;;;2.30;;
10216;SDS011;5152;59.674;16.838;2022-08-14T04:37:51;3.47;;;2.47;;
10216;SDS011;5152;59.674;16.838;2022-08-14T04:40:35;2.50;;;2.30;;
10216;SDS011;5152;59.674;16.838;2022-08-14T04:43:20;2.50;;;2.30;;
10216;SDS011;5152;59.674;16.838;2022-08-14T04:46:02;2.23;;;2.03;;
10216;SDS011;5152;59.674;16.838;2022-08-14T04:48:30;2.90;;;2.37;;
10216;SDS011;5152;59.674;16.838;2022-08-14T04:50:58;2.63;;;2.40;;
10216;SDS011;5152;59.674;16.838;2022-08-14T04:53:25;2.50;;;2.30;;
10216;SDS011;5152;59.674;16.838;2022-08-14T04:55:55;4.73;;;2.30;;
10216;SDS011;5152;59.674;16.838;2022-08-14T04:58:23;2.07;;;1.87;;
10216;SDS011;5152;59.674;16.838;2022-08-14T05:00:51;3.73;;;2.50;;
10216;SDS011;5152;59.674;16.838;2022-08-14T05:03:19;4.13;;;2.63;;
10216;SDS011;5152;59.674;16.838;2022-08-14T05:05:48;3.47;;;2.57;;
10216;SDS011;5152;59.674;16.838;2022-08-14T05:08:15;6.73;;;1.60;;
10216;SDS011;5152;59.674;16.838;2022-08-14T05:10:44;1.60;;;1.50;;
10216;SDS011;5152;59.674;16.838;2022-08-14T05:13:11;4.00;;;1.80;;
10216;SDS011;5152;59.674;16.838;2022-08-14T05:15:38;2.60;;;2.30;;
10216;SDS011;5152;59.674;16.838;2022-08-14T05:18:08;4.63;;;3.00;;
10216;SDS011;5152;59.674;16.838;2022-08-14T05:20:36;5.67;;;2.10;;
10216;SDS011;5152;59.674;16.838;2022-08-14T05:23:05;1.50;;;1.40;;
10216;SDS011;5152;59.674;16.838;2022-08-14T05:25:33;4.37;;;1.87;;
10216;SDS011;5152;59.674;16.838;2022-08-14T05:28:05;1.73;;;1.63;;
10216;SDS011;5152;59.674;16.838;2022-08-14T05:30:34;4.10;;;2.23;;
10216;SDS011;5152;59.674;16.838;2022-08-14T05:33:00;2.07;;;1.53;;
10216;SDS011;5152;59.674;16.838;2022-08-14T05:35:27;2.17;;;1.50;;
10216;SDS011;5152;59.674;16.838;2022-08-14T05:37:56;1.90;;;1.80;;
10216;SDS011;5152;59.674;16.838;2022-08-14T05:40:24;1.60;;;1.50;;
10216;SDS011;5152;59.674;16.838;2022-08-14T05:42:51;1.43;;;1.33;;
10216;SDS011;5152;59.674;16.838;2022-08-14T05:45:18;4.03;;;2.60;;
10216;SDS011;5152;59.674;16.838;2022-08-14T05:47:45;3.37;;;2.07;;
10216;SDS011;5152;59.674;16.838;2022-08-14T05:50:12;2.73;;;2.50;;
10216;SDS011;5152;59.674;16.838;2022-08-14T05:52:39;1.70;;;1.57;;
10216;SDS011;5152;59.674;16.838;2022-08-14T05:55:07;3.17;;;1.70;;
10216;SDS011;5152;59.674;16.838;2022-08-14T05:57:46;3.80;;;2.00;;
10216;SDS011;5152;59.674;16.838;2022-08-14T06:00:14;2.97;;;1.80;;
10216;SDS011;5152;59.674;16.838;2022-08-14T06:02:41;1.50;;;1.40;;
10216;SDS011;5152;59.674;16.838;2022-08-14T06:05:08;3.87;;;1.93;;
10216;SDS011;5152;59.674;16.838;2022-08-14T06:07:35;1.17;;;1.10;;
10216;SDS011;5152;59.674;16.838;2022-08-14T06:10:03;2.13;;;1.20;;
10216;SDS011;5152;59.674;16.838;2022-08-14T06:12:30;1.63;;;1.53;;
10216;SDS011;5152;59.674;16.838;2022-08-14T06:14:59;2.77;;;1.87;;
10216;SDS011;5152;59.674;16.838;2022-08-14T06:17:26;3.10;;;1.60;;
10216;SDS011;5152;59.674;16.838;2022-08-14T06:19:53;1.27;;;1.17;;
10216;SDS011;5152;59.674;16.838;2022-08-14T06:22:20;1.43;;;1.30;;
10216;SDS011;5152;59.674;16.838;2022-08-14T06:24:47;3.27;;;2.30;;
10216;SDS011;5152;59.674;16.838;2022-08-14T06:27:13;4.13;;;1.90;;
10216;SDS011;5152;59.674;16.838;2022-08-14T06:29:40;1.77;;;1.30;;
10216;SDS011;5152;59.674;16.838;2022-08-14T06:32:08;2.20;;;1.30;;
10216;SDS011;5152;59.674;16.838;2022-08-14T06:34:35;8.43;;;3.17;;
10216;SDS011;5152;59.674;16.838;2022-08-14T06:37:03;6.47;;;2.63;;
10216;SDS011;5152;59.674;16.838;2022-08-14T06:39:30;5.50;;;1.83;;
10216;SDS011;5152;59.674;16.838;2022-08-14T06:41:58;6.50;;;2.43;;
10216;SDS011;5152;59.674;16.838;2022-08-14T06:44:25;7.63;;;2.20;;
10216;SDS011;5152;59.674;16.838;2022-08-14T06:46:52;5.80;;;2.13;;
10216;SDS011;5152;59.674;16.838;2022-08-14T06:49:20;4.07;;;1.80;;
10216;SDS011;5152;59.674;16.838;2022-08-14T06:51:47;2.07;;;1.77;;
10216;SDS011;5152;59.674;16.838;2022-08-14T06:54:14;9.70;;;1.60;;
10216;SDS011;5152;59.674;16.838;2022-08-14T06:56:41;3.20;;;1.70;;
10216;SDS011;5152;59.674;16.838;2022-08-14T06:59:07;4.00;;;1.10;;
10216;SDS011;5152;59.674;16.838;2022-08-14T07:01:34;1.30;;;1.20;;
10216;SDS011;5152;59.674;16.838;2022-08-14T07:04:22;2.53;;;1.60;;
10216;SDS011;5152;59.674;16.838;2022-08-14T07:07:06;5.33;;;1.73;;
10216;SDS011;5152;59.674;16.838;2022-08-14T07:09:33;9.75;;;2.67;;
10216;SDS011;5152;59.674;16.838;2022-08-14T07:12:00;4.20;;;1.90;;
10216;SDS011;5152;59.674;16.838;2022-08-14T07:14:26;10.70;;;2.17;;
10216;SDS011;5152;59.674;16.838;2022-08-14T07:16:56;4.18;;;1.90;;
10216;SDS011;5152;59.674;16.838;2022-08-14T07:19:24;2.47;;;1.73;;
10216;SDS011;5152;59.674;16.838;2022-08-14T07:21:51;4.53;;;2.10;;
10216;SDS011;5152;59.674;16.838;2022-08-14T07:24:18;1.83;;;1.70;;
10216;SDS011;5152;59.674;16.838;2022-08-14T07:26:45;3.15;;;1.52;;
10216;SDS011;5152;59.674;16.838;2022-08-14T07:29:12;3.58;;;1.83;;
10216;SDS011;5152;59.674;16.838;2022-08-14T07:31:39;4.75;;;2.00;;
10216;SDS011;5152;59.674;16.838;2022-08-14T07:34:06;3.05;;;1.70;;
10216;SDS011;5152;59.674;16.838;2022-08-14T07:36:37;3.40;;;1.75;;
10216;SDS011;5152;59.674;16.838;2022-08-14T07:39:03;3.88;;;1.70;;
10216;SDS011;5152;59.674;16.838;2022-08-14T07:41:30;3.60;;;1.63;;
10216;SDS011;5152;59.674;16.838;2022-08-14T07:43:57;4.40;;;1.90;;
10216;SDS011;5152;59.674;16.838;2022-08-14T07:46:24;3.97;;;1.90;;
10216;SDS011;5152;59.674;16.838;2022-08-14T07:48:50;5.00;;;2.03;;
10216;SDS011;5152;59.674;16.838;2022-08-14T07:51:17;3.53;;;1.75;;
10216;SDS011;5152;59.674;16.838;2022-08-14T07:53:46;2.63;;;1.65;;
10216;SDS011;5152;59.674;16.838;2022-08-14T07:56:16;1.98;;;1.67;;
10216;SDS011;5152;59.674;16.838;2022-08-14T07:58:43;7.10;;;2.45;;
10216;SDS011;5152;59.674;16.838;2022-08-14T08:01:10;1.40;;;1.30;;
10216;SDS011;5152;59.674;16.838;2022-08-14T08:03:37;5.30;;;1.77;;
10216;SDS011;5152;59.674;16.838;2022-08-14T08:06:06;5.78;;;1.85;;
10216;SDS011;5152;59.674;16.838;2022-08-14T08:08:33;1.92;;;1.70;;
10216;SDS011;5152;59.674;16.838;2022-08-14T08:11:01;3.08;;;2.10;;
10216;SDS011;5152;59.674;16.838;2022-08-14T08:13:28;1.70;;;1.60;;
10216;SDS011;5152;59.674;16.838;2022-08-14T08:15:58;5.40;;;1.50;;
10216;SDS011;5152;59.674;16.838;2022-08-14T08:18:27;5.30;;;1.90;;
10216;SDS011;5152;59.674;16.838;2022-08-14T08:20:54;2.58;;;1.48;;
10216;SDS011;5152;59.674;16.838;2022-08-14T08:23:21;9.57;;;2.08;;
10216;SDS011;5152;59.674;16.838;2022-08-14T08:25:49;3.33;;;1.95;;
10216;SDS011;5152;59.674;16.838;2022-08-14T08:28:18;1.80;;;1.70;;
10216;SDS011;5152;59.674;16.838;2022-08-14T08:30:47;2.72;;;1.77;;
10216;SDS011;5152;59.674;16.838;2022-08-14T08:33:16;3.55;;;1.48;;
10216;SDS011;5152;59.674;16.838;2022-08-14T08:35:43;3.30;;;1.67;;
10216;SDS011;5152;59.674;16.838;2022-08-14T08:38:11;2.80;;;1.40;;
10216;SDS011;5152;59.674;16.838;2022-08-14T08:40:42;4.72;;;1.38;;
10216;SDS011;5152;59.674;16.838;2022-08-14T08:43:15;1.45;;;1.35;;
10216;SDS011;5152;59.674;16.838;2022-08-14T08:45:48;5.15;;;1.70;;
10216;SDS011;5152;59.674;16.838;2022-08-14T08:48:19;1.90;;;1.50;;
10216;SDS011;5152;59.674;16.838;2022-08-14T08:50:46;1.80;;;1.58;;
10216;SDS011;5152;59.674;16.838;2022-08-14T08:53:13;2.80;;;1.63;;
10216;SDS011;5152;59.674;16.838;2022-08-14T08:55:41;2.35;;;1.58;;
10216;SDS011;5152;59.674;16.838;2022-08-14T08:58:08;4.20;;;1.20;;
10216;SDS011;5152;59.674;16.838;2022-08-14T09:00:37;1.73;;;1.25;;
10216;SDS011;5152;59.674;16.838;2022-08-14T09:03:07;2.05;;;1.38;;
10216;SDS011;5152;59.674;16.838;2022-08-14T09:05:35;2.03;;;1.20;;
10216;SDS011;5152;59.674;16.838;2022-08-14T09:08:09;5.55;;;1.38;;
10216;SDS011;5152;59.674;16.838;2022-08-14T09:10:40;2.88;;;1.25;;
10216;SDS011;5152;59.674;16.838;2022-08-14T09:13:08;1.23;;;1.13;;
10216;SDS011;5152;59.674;16.838;2022-08-14T09:15:37;3.88;;;1.40;;
10216;SDS011;5152;59.674;16.838;2022-08-14T09:18:05;2.35;;;1.30;;
10216;SDS011;5152;59.674;16.838;2022-08-14T09:20:33;1.35;;;1.10;;
10216;SDS011;5152;59.674;16.838;2022-08-14T09:23:02;1.40;;;1.30;;
10216;SDS011;5152;59.674;16.838;2022-08-14T09:25:30;4.43;;;1.23;;
10216;SDS011;5152;59.674;16.838;2022-08-14T09:27:56;1.33;;;1.20;;
10216;SDS011;5152;59.674;16.838;2022-08-14T09:30:23;1.33;;;1.10;;
10216;SDS011;5152;59.674;16.838;2022-08-14T09:32:55;2.00;;;1.50;;
10216;SDS011;5152;59.674;16.838;2022-08-14T09:35:46;3.63;;;1.20;;
10216;SDS011;5152;59.674;16.838;2022-08-14T09:38:21;2.22;;;1.30;;
10216;SDS011;5152;59.674;16.838;2022-08-14T09:40:55;2.55;;;1.50;;
10216;SDS011;5152;59.674;16.838;2022-08-14T09:43:28;3.63;;;1.40;;
10216;SDS011;5152;59.674;16.838;2022-08-14T09:45:56;3.03;;;1.23;;
10216;SDS011;5152;59.674;16.838;2022-08-14T09:48:24;2.25;;;1.17;;
10216;SDS011;5152;59.674;16.838;2022-08-14T09:50:53;3.35;;;1.30;;
10216;SDS011;5152;59.674;16.838;2022-08-14T09:53:33;1.42;;;1.27;;
10216;SDS011;5152;59.674;16.838;2022-08-14T09:56:01;4.15;;;1.48;;
10216;SDS011;5152;59.674;16.838;2022-08-14T09:58:34;1.58;;;1.17;;
10216;SDS011;5152;59.674;16.838;2022-08-14T10:01:06;1.45;;;1.08;;
10216;SDS011;5152;59.674;16.838;2022-08-14T10:03:35;1.30;;;1.10;;
10216;SDS011;5152;59.674;16.838;2022-08-14T10:06:04;1.20;;;1.13;;
10216;SDS011;5152;59.674;16.838;2022-08-14T10:08:39;3.55;;;1.17;;
10216;SDS011;5152;59.674;16.838;2022-08-14T10:11:15;2.97;;;1.40;;
10216;SDS011;5152;59.674;16.838;2022-08-14T10:13:43;4.63;;;1.33;;
10216;SDS011;5152;59.674;16.838;2022-08-14T10:16:11;1.95;;;1.40;;
10216;SDS011;5152;59.674;16.838;2022-08-14T10:18:38;4.10;;;1.10;;
10216;SDS011;5152;59.674;16.838;2022-08-14T10:21:08;2.60;;;1.10;;
10216;SDS011;5152;59.674;16.838;2022-08-14T10:23:40;3.63;;;1.63;;
10216;SDS011;5152;59.674;16.838;2022-08-14T10:26:09;1.95;;;1.20;;
10216;SDS011;5152;59.674;16.838;2022-08-14T10:28:39;3.08;;;1.63;;
10216;SDS011;5152;59.674;16.838;2022-08-14T10:31:20;2.25;;;1.50;;
10216;SDS011;5152;59.674;16.838;2022-08-14T10:33:59;4.50;;;1.63;;
10216;SDS011;5152;59.674;16.838;2022-08-14T10:36:30;4.10;;;1.33;;
10216;SDS011;5152;59.674;16.838;2022-08-14T10:38:58;1.45;;;1.30;;
10216;SDS011;5152;59.674;16.838;2022-08-14T10:41:36;6.80;;;1.52;;
10216;SDS011;5152;59.674;16.838;2022-08-14T10:44:08;3.40;;;1.33;;
10216;SDS011;5152;59.674;16.838;2022-08-14T10:46:42;5.25;;;1.52;;
10216;SDS011;5152;59.674;16.838;2022-08-14T10:49:17;2.20;;;1.20;;
10216;SDS011;5152;59.674;16.838;2022-08-14T10:51:59;3.00;;;1.50;;
10216;SDS011;5152;59.674;16.838;2022-08-14T10:54:37;1.55;;;1.40;;
10216;SDS011;5152;59.674;16.838;2022-08-14T10:59:53;2.22;;;1.55;;
10216;SDS011;5152;59.674;16.838;2022-08-14T11:02:25;3.67;;;1.65;;
10216;SDS011;5152;59.674;16.838;2022-08-14T11:05:01;5.13;;;1.55;;
10216;SDS011;5152;59.674;16.838;2022-08-14T11:07:34;6.18;;;1.70;;
10216;SDS011;5152;59.674;16.838;2022-08-14T11:10:05;2.55;;;1.48;;
10216;SDS011;5152;59.674;16.838;2022-08-14T11:12:41;3.15;;;1.52;;
10216;SDS011;5152;59.674;16.838;2022-08-14T11:15:13;1.83;;;1.50;;
10216;SDS011;5152;59.674;16.838;2022-08-14T11:17:42;5.03;;;1.63;;
10216;SDS011;5152;59.674;16.838;2022-08-14T11:20:10;11.43;;;1.50;;
10216;SDS011;5152;59.674;16.838;2022-08-14T11:22:39;5.40;;;1.35;;
10216;SDS011;5152;59.674;16.838;2022-08-14T11:25:07;4.00;;;1.40;;
10216;SDS011;5152;59.674;16.838;2022-08-14T11:27:35;6.72;;;1.48;;
10216;SDS011;5152;59.674;16.838;2022-08-14T11:30:04;4.28;;;1.45;;
10216;SDS011;5152;59.674;16.838;2022-08-14T11:32:33;2.05;;;1.40;;
10216;SDS011;5152;59.674;16.838;2022-08-14T11:35:01;3.70;;;1.38;;
10216;SDS011;5152;59.674;16.838;2022-08-14T11:37:27;4.40;;;1.50;;
10216;SDS011;5152;59.674;16.838;2022-08-14T11:39:59;4.07;;;1.20;;
10216;SDS011;5152;59.674;16.838;2022-08-14T11:42:27;5.10;;;1.30;;
10216;SDS011;5152;59.674;16.838;2022-08-14T11:44:55;1.40;;;1.30;;
10216;SDS011;5152;59.674;16.838;2022-08-14T11:47:23;1.77;;;1.45;;
10216;SDS011;5152;59.674;16.838;2022-08-14T11:49:50;2.83;;;1.67;;
10216;SDS011;5152;59.674;16.838;2022-08-14T11:52:17;3.53;;;1.30;;
10216;SDS011;5152;59.674;16.838;2022-08-14T11:54:44;2.42;;;1.42;;
10216;SDS011;5152;59.674;16.838;2022-08-14T11:57:16;3.67;;;1.80;;
10216;SDS011;5152;59.674;16.838;2022-08-14T11:59:44;3.45;;;1.35;;
10216;SDS011;5152;59.674;16.838;2022-08-14T12:02:11;6.10;;;1.60;;
10216;SDS011;5152;59.674;16.838;2022-08-14T12:04:47;7.55;;;1.58;;
10216;SDS011;5152;59.674;16.838;2022-08-14T12:07:14;2.45;;;1.35;;
10216;SDS011;5152;59.674;16.838;2022-08-14T12:09:41;5.45;;;1.40;;
10216;SDS011;5152;59.674;16.838;2022-08-14T12:12:13;1.73;;;1.40;;
10216;SDS011;5152;59.674;16.838;2022-08-14T12:14:49;9.13;;;1.65;;
10216;SDS011;5152;59.674;16.838;2022-08-14T12:17:20;3.85;;;1.40;;
10216;SDS011;5152;59.674;16.838;2022-08-14T12:19:49;3.20;;;1.27;;
10216;SDS011;5152;59.674;16.838;2022-08-14T12:22:18;2.10;;;1.33;;
10216;SDS011;5152;59.674;16.838;2022-08-14T12:24:48;4.45;;;1.20;;
10216;SDS011;5152;59.674;16.838;2022-08-14T12:27:16;3.53;;;1.35;;
10216;SDS011;5152;59.674;16.838;2022-08-14T12:29:50;5.82;;;1.20;;
10216;SDS011;5152;59.674;16.838;2022-08-14T12:32:17;3.00;;;1.52;;
10216;SDS011;5152;59.674;16.838;2022-08-14T12:34:50;1.98;;;1.10;;
10216;SDS011;5152;59.674;16.838;2022-08-14T12:37:18;2.13;;;1.30;;
10216;SDS011;5152;59.674;16.838;2022-08-14T12:39:54;1.33;;;1.23;;
10216;SDS011;5152;59.674;16.838;2022-08-14T12:42:22;3.58;;;1.23;;
10216;SDS011;5152;59.674;16.838;2022-08-14T12:44:59;2.22;;;1.45;;
10216;SDS011;5152;59.674;16.838;2022-08-14T12:47:26;2.35;;;1.20;;
10216;SDS011;5152;59.674;16.838;2022-08-14T12:49:55;2.00;;;1.30;;
10216;SDS011;5152;59.674;16.838;2022-08-14T12:52:26;1.30;;;1.20;;
10216;SDS011;5152;59.674;16.838;2022-08-14T12:54:56;1.90;;;1.23;;
10216;SDS011;5152;59.674;16.838;2022-08-14T12:57:32;1.85;;;1.20;;
10216;SDS011;5152;59.674;16.838;2022-08-14T13:02:50;2.45;;;1.10;;
10216;SDS011;5152;59.674;16.838;2022-08-14T13:05:20;2.03;;;1.30;;
10216;SDS011;5152;59.674;16.838;2022-08-14T13:07:48;1.58;;;1.40;;
10216;SDS011;5152;59.674;16.838;2022-08-14T13:10:16;2.03;;;1.10;;
10216;SDS011;5152;59.674;16.838;2022-08-14T13:12:46;1.60;;;1.08;;
10216;SDS011;5152;59.674;16.838;2022-08-14T13:15:14;2.00;;;1.10;;
10216;SDS011;5152;59.674;16.838;2022-08-14T13:17:43;1.92;;;1.10;;
10216;SDS011;5152;59.674;16.838;2022-08-14T13:20:12;2.95;;;1.10;;
10216;SDS011;5152;59.674;16.838;2022-08-14T13:22:40;1.23;;;1.13;;
10216;SDS011;5152;59.674;16.838;2022-08-14T13:25:09;3.10;;;1.00;;
10216;SDS011;5152;59.674;16.838;2022-08-14T13:27:37;3.17;;;1.08;;
10216;SDS011;5152;59.674;16.838;2022-08-14T13:30:07;2.25;;;1.20;;
10216;SDS011;5152;59.674;16.838;2022-08-14T13:32:36;3.03;;;1.08;;
10216;SDS011;5152;59.674;16.838;2022-08-14T13:35:04;1.40;;;1.10;;
10216;SDS011;5152;59.674;16.838;2022-08-14T13:37:32;6.95;;;1.33;;
10216;SDS011;5152;59.674;16.838;2022-08-14T13:39:59;1.67;;;1.38;;
10216;SDS011;5152;59.674;16.838;2022-08-14T13:42:26;6.85;;;1.23;;
10216;SDS011;5152;59.674;16.838;2022-08-14T13:44:54;1.20;;;1.10;;
10216;SDS011;5152;59.674;16.838;2022-08-14T13:47:25;4.20;;;1.08;;
10216;SDS011;5152;59.674;16.838;2022-08-14T13:49:54;7.55;;;1.65;;
10216;SDS011;5152;59.674;16.838;2022-08-14T13:52:24;2.50;;;1.20;;
10216;SDS011;5152;59.674;16.838;2022-08-14T13:54:53;2.13;;;1.30;;
10216;SDS011;5152;59.674;16.838;2022-08-14T13:57:25;1.48;;;1.00;;
10216;SDS011;5152;59.674;16.838;2022-08-14T13:59:53;7.68;;;0.98;;
10216;SDS011;5152;59.674;16.838;2022-08-14T14:02:20;1.10;;;1.00;;
10216;SDS011;5152;59.674;16.838;2022-08-14T14:04:49;3.33;;;1.20;;
10216;SDS011;5152;59.674;16.838;2022-08-14T14:07:19;1.20;;;1.00;;
10216;SDS011;5152;59.674;16.838;2022-08-14T14:09:47;4.88;;;1.08;;
10216;SDS011;5152;59.674;16.838;2022-08-14T14:12:15;1.88;;;0.85;;
10216;SDS011;5152;59.674;16.838;2022-08-14T14:14:41;0.95;;;0.90;;
10216;SDS011;5152;59.674;16.838;2022-08-14T14:17:11;3.13;;;0.93;;
10216;SDS011;5152;59.674;16.838;2022-08-14T14:19:39;3.60;;;1.02;;
10216;SDS011;5152;59.674;16.838;2022-08-14T14:22:08;1.52;;;1.05;;
10216;SDS011;5152;59.674;16.838;2022-08-14T14:24:35;0.60;;;0.60;;
10216;SDS011;5152;59.674;16.838;2022-08-14T14:27:04;1.23;;;1.15;;
10216;SDS011;5152;59.674;16.838;2022-08-14T14:29:32;2.70;;;1.00;;
10216;SDS011;5152;59.674;16.838;2022-08-14T14:32:00;1.58;;;1.00;;
10216;SDS011;5152;59.674;16.838;2022-08-14T14:34:28;1.55;;;0.93;;
10216;SDS011;5152;59.674;16.838;2022-08-14T14:36:57;2.13;;;1.10;;
10216;SDS011;5152;59.674;16.838;2022-08-14T14:39:28;4.03;;;1.10;;
10216;SDS011;5152;59.674;16.838;2022-08-14T14:41:56;3.13;;;0.93;;
10216;SDS011;5152;59.674;16.838;2022-08-14T14:44:25;4.07;;;1.30;;
10216;SDS011;5152;59.674;16.838;2022-08-14T14:46:56;1.73;;;0.70;;
10216;SDS011;5152;59.674;16.838;2022-08-14T14:49:23;2.53;;;1.02;;
10216;SDS011;5152;59.674;16.838;2022-08-14T14:51:53;1.05;;;0.93;;
10216;SDS011;5152;59.674;16.838;2022-08-14T14:54:21;0.98;;;0.95;;
10216;SDS011;5152;59.674;16.838;2022-08-14T14:56:50;2.85;;;0.90;;
10216;SDS011;5152;59.674;16.838;2022-08-14T14:59:17;1.40;;;0.70;;
10216;SDS011;5152;59.674;16.838;2022-08-14T15:01:47;0.63;;;0.63;;
10216;SDS011;5152;59.674;16.838;2022-08-14T15:04:14;1.23;;;0.98;;